Time;durP1;ratioP1;P1;durP2;ratioP2;P2;SDS_P1;SDS_P2;PMS_P1;PMS_P2;Temp;Humidity;BMP_temperature;BMP_pressure;BME280_temperature;BME280_humidity;BME280_pressure;Samples;Min_cycle;Max_cycle;Signal;HPM_P1;HPM_P2
2020/12/30 00:02:26;;;;;;;6.85;4.25;;;2.80;99.90;;;;;;4984049;28;20023;-85
2020/12/30 00:04:52;;;;;;;6.80;4.07;;;2.70;99.90;;;;;;4983872;28;20126;-85
2020/12/30 00:07:17;;;;;;;6.50;4.18;;;2.70;99.90;;;;;;4984613;28;20382;-85
2020/12/30 00:09:43;;;;;;;9.15;3.85;;;2.70;99.90;;;;;;4984522;28;20030;-84
2020/12/30 00:12:09;;;;;;;8.27;3.88;;;2.70;99.90;;;;;;4985500;28;20067;-85
2020/12/30 00:14:35;;;;;;;5.85;4.18;;;2.60;99.90;;;;;;4987253;28;20034;-84
2020/12/30 00:17:02;;;;;;;6.38;4.32;;;2.70;99.90;;;;;;4984141;28;20076;-85
2020/12/30 00:19:28;;;;;;;7.90;4.22;;;2.80;99.90;;;;;;4986040;28;20474;-84
2020/12/30 00:21:54;;;;;;;7.88;4.53;;;2.80;99.90;;;;;;4985835;28;20027;-85
2020/12/30 00:24:19;;;;;;;7.07;4.72;;;2.80;99.90;;;;;;4984651;28;20054;-85
2020/12/30 00:26:45;;;;;;;7.35;4.28;;;2.80;99.90;;;;;;4985042;28;20026;-84
2020/12/30 00:29:11;;;;;;;6.28;4.22;;;2.90;99.90;;;;;;4984908;28;20047;-84
2020/12/30 00:31:36;;;;;;;5.38;3.42;;;3.00;99.90;;;;;;4984322;28;20034;-84
2020/12/30 00:34:02;;;;;;;5.57;4.10;;;3.00;99.90;;;;;;4984421;28;20470;-84
2020/12/30 00:36:28;;;;;;;8.10;4.68;;;3.00;99.90;;;;;;4984441;28;20122;-84
2020/12/30 00:38:53;;;;;;;6.80;4.15;;;3.00;99.90;;;;;;4985162;28;20505;-84
2020/12/30 00:41:19;;;;;;;7.18;3.88;;;3.00;99.90;;;;;;4985117;28;20031;-84
2020/12/30 00:43:45;;;;;;;5.78;3.78;;;3.10;99.90;;;;;;4984013;28;20030;-85
2020/12/30 00:46:17;;;;;;;4.82;3.63;;;3.10;99.90;;;;;;4986427;28;20030;-84
2020/12/30 00:48:44;;;;;;;6.00;4.30;;;3.00;99.90;;;;;;4983838;28;20022;-84
2020/12/30 00:51:16;;;;;;;6.88;4.38;;;2.80;99.90;;;;;;4983885;28;20090;-84
2020/12/30 00:53:43;;;;;;;7.55;4.00;;;2.90;99.90;;;;;;4984386;28;20062;-84
2020/12/30 00:56:09;;;;;;;6.32;3.83;;;2.90;99.90;;;;;;4986019;28;20031;-85
2020/12/30 00:58:39;;;;;;;4.93;3.72;;;2.80;99.90;;;;;;4985277;28;20030;-84
2020/12/30 01:01:09;;;;;;;6.90;4.28;;;2.80;99.90;;;;;;4983114;28;20088;-85
2020/12/30 01:03:36;;;;;;;5.45;4.60;;;2.70;99.90;;;;;;4982968;28;20026;-84
2020/12/30 01:06:05;;;;;;;8.18;4.60;;;2.70;99.90;;;;;;4987197;28;20038;-84
2020/12/30 01:08:31;;;;;;;5.90;4.60;;;2.70;99.90;;;;;;4983828;28;20026;-85
2020/12/30 01:10:57;;;;;;;8.05;4.80;;;2.70;99.90;;;;;;4983948;28;20033;-84
2020/12/30 01:13:23;;;;;;;6.68;4.80;;;2.80;99.90;;;;;;4982340;28;20031;-84
2020/12/30 01:15:48;;;;;;;7.22;4.43;;;2.70;99.90;;;;;;4981931;28;20035;-84
2020/12/30 01:18:14;;;;;;;6.10;4.63;;;2.70;99.90;;;;;;4980884;28;20486;-83
2020/12/30 01:20:40;;;;;;;7.13;4.50;;;2.60;99.90;;;;;;4983473;28;20478;-84
2020/12/30 01:23:06;;;;;;;6.70;4.45;;;2.40;99.90;;;;;;4982046;28;20090;-84
2020/12/30 01:25:32;;;;;;;6.68;4.95;;;2.40;99.90;;;;;;4981595;28;20033;-84
2020/12/30 01:27:58;;;;;;;8.38;5.75;;;2.30;99.90;;;;;;4981898;28;20521;-84
2020/12/30 01:30:24;;;;;;;7.30;4.97;;;2.10;99.90;;;;;;4984163;28;20051;-84
2020/12/30 01:32:49;;;;;;;7.57;5.40;;;2.20;99.90;;;;;;4985659;28;20077;-84
2020/12/30 01:35:15;;;;;;;7.03;5.50;;;2.30;99.90;;;;;;4980694;28;20030;-84
2020/12/30 01:37:41;;;;;;;7.35;5.47;;;2.30;99.90;;;;;;4986715;28;20489;-84
2020/12/30 01:40:07;;;;;;;7.43;5.72;;;2.40;99.90;;;;;;4984757;28;20050;-84
2020/12/30 01:42:47;;;;;;;8.48;5.43;;;2.40;99.90;;;;;;4982057;28;20018;-84
2020/12/30 01:45:14;;;;;;;7.97;5.28;;;2.40;99.90;;;;;;4983642;28;20027;-84
2020/12/30 01:47:41;;;;;;;7.28;5.10;;;2.30;99.90;;;;;;4984737;28;20085;-84
2020/12/30 01:50:07;;;;;;;8.95;5.55;;;2.40;99.90;;;;;;4986082;28;20458;-84
2020/12/30 01:52:33;;;;;;;7.28;5.13;;;2.40;99.90;;;;;;4982795;28;20046;-84
2020/12/30 01:55:00;;;;;;;6.70;4.57;;;2.40;99.90;;;;;;4983046;28;20023;-84
2020/12/30 01:57:26;;;;;;;6.68;4.82;;;2.30;99.90;;;;;;4981214;28;20046;-84
2020/12/30 01:59:54;;;;;;;7.13;5.30;;;2.20;99.90;;;;;;4981761;28;20019;-84
2020/12/30 02:02:23;;;;;;;7.38;5.07;;;2.20;99.90;;;;;;4983253;28;20019;-84
2020/12/30 02:04:53;;;;;;;7.68;5.13;;;2.40;99.90;;;;;;4982313;28;20374;-84
2020/12/30 02:07:23;;;;;;;5.78;4.35;;;2.30;99.90;;;;;;4981392;28;20030;-85
2020/12/30 02:09:50;;;;;;;7.68;4.60;;;2.40;99.90;;;;;;4982656;28;20382;-84
2020/12/30 02:12:15;;;;;;;7.47;4.55;;;2.40;99.90;;;;;;4980998;28;20398;-84
2020/12/30 02:14:41;;;;;;;7.03;4.70;;;2.50;99.90;;;;;;4980190;28;20030;-84
2020/12/30 02:17:15;;;;;;;6.75;4.80;;;2.40;99.90;;;;;;4979262;28;20054;-85
2020/12/30 02:19:41;;;;;;;;;;;2.40;99.90;;;;;;4983261;28;20023;-84
2020/12/30 02:22:09;;;;;;;6.60;4.68;;;2.30;99.90;;;;;;4988981;28;20000;-85
2020/12/30 02:24:36;;;;;;;6.38;4.38;;;2.40;99.90;;;;;;4985585;28;20037;-85
2020/12/30 02:27:04;;;;;;;6.72;4.22;;;2.40;99.90;;;;;;4986786;28;20073;-85
2020/12/30 02:29:30;;;;;;;6.43;4.80;;;2.40;99.90;;;;;;4982519;28;20043;-83
2020/12/30 02:31:56;;;;;;;6.80;5.25;;;2.30;99.90;;;;;;4988422;28;20031;-85
2020/12/30 02:34:22;;;;;;;7.90;5.25;;;2.30;99.90;;;;;;4987178;28;20027;-84
2020/12/30 02:36:48;;;;;;;6.75;4.90;;;2.40;99.90;;;;;;4982868;28;20027;-85
2020/12/30 02:39:15;;;;;;;6.57;4.80;;;2.50;99.90;;;;;;4982561;28;20039;-85
2020/12/30 02:41:41;;;;;;;9.60;4.93;;;2.50;99.90;;;;;;4982049;28;20027;-85
2020/12/30 02:44:07;;;;;;;6.47;4.25;;;2.50;99.90;;;;;;4982553;28;20046;-84
2020/12/30 02:46:33;;;;;;;7.28;4.38;;;2.50;99.90;;;;;;4979612;28;20129;-84
2020/12/30 02:48:59;;;;;;;5.82;4.55;;;2.60;99.90;;;;;;4979415;28;20026;-84
2020/12/30 02:51:25;;;;;;;5.68;4.18;;;2.40;99.90;;;;;;4980695;28;20080;-84
2020/12/30 02:53:51;;;;;;;7.90;4.38;;;2.40;99.90;;;;;;4979658;28;20039;-85
2020/12/30 02:56:18;;;;;;;7.65;4.63;;;2.30;99.90;;;;;;4978841;28;20023;-85
2020/12/30 02:58:47;;;;;;;5.07;4.43;;;2.50;99.90;;;;;;4977321;28;20367;-84
2020/12/30 03:01:14;;;;;;;6.57;4.57;;;2.60;99.90;;;;;;4977172;28;20030;-83
2020/12/30 03:03:40;;;;;;;8.80;4.88;;;2.50;99.90;;;;;;4981053;28;20022;-84
2020/12/30 03:06:06;;;;;;;6.53;4.00;;;2.60;99.90;;;;;;4979187;28;20114;-84
2020/12/30 03:08:33;;;;;;;5.93;4.03;;;2.70;99.90;;;;;;4977101;28;20078;-84
2020/12/30 03:10:59;;;;;;;5.63;4.00;;;2.50;99.90;;;;;;4977030;28;20165;-84
2020/12/30 03:13:25;;;;;;;5.00;4.30;;;2.40;99.90;;;;;;4977479;28;20117;-84
2020/12/30 03:15:51;;;;;;;7.13;4.40;;;2.60;99.90;;;;;;4977283;28;20057;-84
2020/12/30 03:18:17;;;;;;;5.50;3.55;;;2.70;99.90;;;;;;4975669;28;20390;-83
2020/12/30 03:20:42;;;;;;;6.78;3.30;;;2.80;99.90;;;;;;4975683;28;20023;-84
2020/12/30 03:23:08;;;;;;;6.75;3.70;;;2.70;99.90;;;;;;4975440;28;20027;-84
2020/12/30 03:25:35;;;;;;;4.97;3.60;;;2.50;99.90;;;;;;4975516;28;20023;-84
2020/12/30 03:28:01;;;;;;;5.13;4.03;;;2.60;99.90;;;;;;4975970;28;20079;-84
2020/12/30 03:30:27;;;;;;;6.38;4.32;;;2.70;99.90;;;;;;4975329;28;20074;-84
2020/12/30 03:32:53;;;;;;;5.95;4.10;;;2.60;99.90;;;;;;4974882;28;20031;-84
2020/12/30 03:35:20;;;;;;;4.78;3.80;;;2.70;99.90;;;;;;4975352;28;20042;-84
2020/12/30 03:37:46;;;;;;;6.00;4.05;;;2.70;99.90;;;;;;4975393;28;20062;-84
2020/12/30 03:40:11;;;;;;;5.45;3.75;;;2.70;99.90;;;;;;4975457;28;20478;-84
2020/12/30 03:42:37;;;;;;;5.28;3.85;;;2.70;99.90;;;;;;4975141;28;20027;-84
2020/12/30 03:45:03;;;;;;;6.82;4.53;;;2.70;99.90;;;;;;4974775;28;20482;-84
2020/12/30 03:47:30;;;;;;;4.75;3.85;;;2.70;99.90;;;;;;4977749;28;20023;-84
2020/12/30 03:49:56;;;;;;;4.93;3.72;;;2.60;99.90;;;;;;4979017;28;20039;-84
2020/12/30 03:52:22;;;;;;;5.28;3.80;;;2.50;99.90;;;;;;4978866;28;20109;-85
2020/12/30 03:54:48;;;;;;;4.85;4.07;;;2.40;99.90;;;;;;4978351;28;20170;-84
2020/12/30 03:57:14;;;;;;;7.72;4.00;;;2.40;99.90;;;;;;4978535;28;20071;-84
2020/12/30 03:59:39;;;;;;;5.40;3.78;;;2.30;99.90;;;;;;4979073;28;20027;-84
2020/12/30 04:02:05;;;;;;;4.07;3.47;;;2.30;99.90;;;;;;4978888;28;20033;-84
2020/12/30 04:04:31;;;;;;;5.63;3.88;;;2.20;99.90;;;;;;4978843;28;20054;-84
2020/12/30 04:06:57;;;;;;;5.97;3.80;;;2.40;99.90;;;;;;4978633;28;20058;-84
2020/12/30 04:09:22;;;;;;;6.80;3.97;;;2.30;99.90;;;;;;4978831;28;20504;-84
2020/12/30 04:11:48;;;;;;;5.05;3.80;;;2.30;99.90;;;;;;4978845;28;20037;-84
2020/12/30 04:14:14;;;;;;;5.80;4.20;;;2.30;99.90;;;;;;4978179;28;20045;-84
2020/12/30 04:16:40;;;;;;;7.30;4.55;;;2.30;99.90;;;;;;4978819;28;20050;-84
2020/12/30 04:19:05;;;;;;;6.40;4.05;;;2.20;99.90;;;;;;4977724;28;20023;-84
2020/12/30 04:21:31;;;;;;;4.57;4.00;;;2.20;99.90;;;;;;4977807;28;20027;-84
2020/12/30 04:23:57;;;;;;;6.03;4.22;;;2.40;99.90;;;;;;4977580;28;20023;-84
2020/12/30 04:26:23;;;;;;;6.47;4.68;;;2.40;99.90;;;;;;4977929;28;20027;-84
2020/12/30 04:28:50;;;;;;;5.07;3.67;;;2.30;99.90;;;;;;4977653;28;20105;-84
2020/12/30 04:31:17;;;;;;;9.80;4.15;;;2.20;99.90;;;;;;4978250;28;20545;-84
2020/12/30 04:33:43;;;;;;;6.97;4.28;;;2.10;99.90;;;;;;4977991;28;20040;-84
2020/12/30 04:36:10;;;;;;;5.10;3.78;;;2.10;99.90;;;;;;4978979;28;20046;-84
2020/12/30 04:38:36;;;;;;;5.00;3.75;;;2.10;99.90;;;;;;4978395;28;20019;-84
2020/12/30 04:41:12;;;;;;;8.68;4.25;;;2.20;99.90;;;;;;4977757;28;20031;-84
2020/12/30 04:43:44;;;;;;;6.50;4.15;;;2.00;99.90;;;;;;4979570;28;20023;-83
2020/12/30 04:46:13;;;;;;;6.53;4.57;;;2.00;99.90;;;;;;4977081;28;20113;-84
2020/12/30 04:48:40;;;;;;;6.53;4.88;;;2.00;99.90;;;;;;4977877;28;20050;-84
2020/12/30 04:51:09;;;;;;;7.22;5.10;;;2.10;99.90;;;;;;4976817;28;20449;-83
2020/12/30 04:53:35;;;;;;;7.10;5.00;;;2.00;99.90;;;;;;4977570;28;20027;-84
2020/12/30 04:56:02;;;;;;;7.18;4.05;;;2.10;99.90;;;;;;4977189;28;20130;-84
2020/12/30 04:58:29;;;;;;;5.68;4.03;;;2.10;99.90;;;;;;4976135;28;20031;-84
2020/12/30 05:00:56;;;;;;;6.68;4.63;;;2.10;99.90;;;;;;4976572;28;20070;-84
2020/12/30 05:03:31;;;;;;;6.57;4.70;;;2.30;99.90;;;;;;4977341;28;20027;-84
2020/12/30 05:06:03;;;;;;;7.13;4.60;;;2.40;99.90;;;;;;4976931;28;20077;-84
2020/12/30 05:08:30;;;;;;;6.40;4.65;;;2.30;99.90;;;;;;4976913;28;20026;-84
2020/12/30 05:10:59;;;;;;;6.20;4.15;;;2.20;99.90;;;;;;4977060;28;20526;-84
2020/12/30 05:13:25;;;;;;;5.90;4.25;;;2.20;99.90;;;;;;4977041;28;20030;-85
2020/12/30 05:15:51;;;;;;;6.47;4.40;;;2.10;99.90;;;;;;4976765;28;20054;-84
2020/12/30 05:18:19;;;;;;;6.50;3.72;;;2.20;99.90;;;;;;4978089;28;20403;-84
2020/12/30 05:20:45;;;;;;;7.45;3.83;;;2.20;99.90;;;;;;4976279;28;20427;-84
2020/12/30 05:23:12;;;;;;;7.20;4.40;;;2.20;99.90;;;;;;4976436;28;20023;-84
2020/12/30 05:25:43;;;;;;;6.65;4.05;;;2.20;99.90;;;;;;4976246;28;20031;-84
2020/12/30 05:28:11;;;;;;;6.50;4.28;;;2.10;99.90;;;;;;4976372;28;20050;-84
2020/12/30 05:30:37;;;;;;;5.05;3.65;;;2.30;99.90;;;;;;4975948;28;20051;-84
2020/12/30 05:33:06;;;;;;;6.00;3.80;;;2.20;99.90;;;;;;4976054;28;20126;-84
2020/12/30 05:35:33;;;;;;;5.25;3.58;;;2.20;99.90;;;;;;4976145;28;20033;-84
2020/12/30 05:38:00;;;;;;;6.18;3.47;;;2.40;99.90;;;;;;4976620;28;20117;-84
2020/12/30 05:40:30;;;;;;;4.78;3.38;;;2.30;99.90;;;;;;4976447;28;20030;-84
2020/12/30 05:43:16;;;;;;;4.90;3.45;;;2.40;99.90;;;;;;4976477;28;20019;-84
2020/12/30 05:45:50;;;;;;;7.07;4.05;;;2.40;99.90;;;;;;4976648;28;20026;-84
2020/12/30 05:48:19;;;;;;;5.75;3.38;;;2.20;99.90;;;;;;4976616;28;20022;-84
2020/12/30 05:50:52;;;;;;;5.10;3.50;;;2.10;99.90;;;;;;4976848;28;20041;-84
2020/12/30 05:53:19;;;;;;;9.35;4.30;;;2.20;99.90;;;;;;4978043;28;20030;-85
2020/12/30 05:55:47;;;;;;;6.30;4.40;;;2.40;99.90;;;;;;4976114;28;20027;-85
2020/12/30 05:58:15;;;;;;;9.13;5.05;;;2.40;99.90;;;;;;4976542;28;20033;-84
2020/12/30 06:00:40;;;;;;;9.55;5.15;;;2.40;99.90;;;;;;4977307;28;20019;-84
2020/12/30 06:03:07;;;;;;;7.78;4.88;;;2.20;99.90;;;;;;4976328;28;20148;-84
2020/12/30 06:05:33;;;;;;;7.70;4.88;;;2.30;99.90;;;;;;4976427;28;20414;-84
2020/12/30 06:07:59;;;;;;;6.20;4.43;;;2.10;99.90;;;;;;4976211;28;20501;-84
2020/12/30 06:10:27;;;;;;;5.35;3.95;;;2.00;99.90;;;;;;4975600;28;20043;-85
2020/12/30 06:12:58;;;;;;;5.95;3.60;;;2.20;99.90;;;;;;4977002;28;20098;-84
2020/12/30 06:15:29;;;;;;;5.97;3.63;;;2.30;99.90;;;;;;4975299;28;20106;-84
2020/12/30 06:17:56;;;;;;;4.47;3.47;;;2.30;99.90;;;;;;4975317;28;20074;-84
2020/12/30 06:20:33;;;;;;;6.63;3.90;;;2.20;99.90;;;;;;4975169;28;20031;-84
2020/12/30 06:23:06;;;;;;;9.43;4.13;;;2.30;99.90;;;;;;4976265;28;20030;-84
2020/12/30 06:25:33;;;;;;;6.18;3.63;;;2.30;99.90;;;;;;4975386;28;20109;-84
2020/12/30 06:28:09;;;;;;;4.90;3.70;;;2.30;99.90;;;;;;4975331;28;20031;-84
2020/12/30 06:30:36;;;;;;;6.07;3.50;;;2.50;99.90;;;;;;4974733;28;20564;-84
2020/12/30 06:33:02;;;;;;;6.05;3.55;;;2.50;99.90;;;;;;4976588;28;20054;-84
2020/12/30 06:35:30;;;;;;;5.85;3.90;;;2.20;99.90;;;;;;4977120;28;20037;-84
2020/12/30 06:37:57;;;;;;;8.75;4.55;;;2.20;99.90;;;;;;4975951;28;20486;-85
2020/12/30 06:40:32;;;;;;;5.38;4.32;;;2.30;99.90;;;;;;4975642;28;20050;-84
2020/12/30 06:43:00;;;;;;;4.95;3.97;;;2.40;99.90;;;;;;4975188;28;20114;-84
2020/12/30 06:45:44;;;;;;;5.28;3.70;;;2.40;99.90;;;;;;4976776;28;20042;-84
2020/12/30 06:48:13;;;;;;;6.63;4.33;;;2.30;99.90;;;;;;4976724;28;20390;-84
2020/12/30 06:50:40;;;;;;;7.07;4.40;;;2.30;99.90;;;;;;4975726;28;20270;-84
2020/12/30 06:53:29;;;;;;;6.15;4.30;;;2.20;99.90;;;;;;4975271;28;20121;-84
2020/12/30 06:55:57;;;;;;;6.05;4.38;;;2.30;99.90;;;;;;4976351;28;20034;-84
2020/12/30 06:58:44;;;;;;;5.85;4.25;;;2.40;99.90;;;;;;4975378;28;20030;-84
2020/12/30 07:01:11;;;;;;;6.68;4.03;;;2.40;99.90;;;;;;4977387;28;20019;-84
2020/12/30 07:03:37;;;;;;;5.68;4.60;;;2.40;99.90;;;;;;4977332;28;20023;-85
2020/12/30 07:06:31;;;;;;;7.20;4.85;;;2.50;99.90;;;;;;4977411;28;20023;-84
2020/12/30 07:08:59;;;;;;;7.07;4.70;;;2.50;99.90;;;;;;4975009;28;20022;-84
2020/12/30 07:11:38;;;;;;;7.35;4.60;;;2.50;99.90;;;;;;4975654;28;20387;-84
2020/12/30 07:14:08;;;;;;;7.80;4.80;;;2.50;99.90;;;;;;4976510;28;20035;-84
2020/12/30 07:16:38;;;;;;;6.70;5.05;;;2.40;99.90;;;;;;4975012;28;20034;-85
2020/12/30 07:19:19;;;;;;;5.55;4.25;;;2.40;99.90;;;;;;4976043;28;20029;-84
2020/12/30 07:22:02;;;;;;;5.60;4.50;;;2.30;99.90;;;;;;4976239;28;20385;-84
2020/12/30 07:24:41;;;;;;;6.65;5.55;;;2.40;99.90;;;;;;4974561;28;20085;-84
2020/12/30 07:27:12;;;;;;;6.30;4.50;;;2.30;99.90;;;;;;4976930;28;20102;-84
2020/12/30 07:29:39;;;;;;;6.47;5.10;;;2.20;99.90;;;;;;4976856;28;20043;-85
2020/12/30 07:32:06;;;;;;;7.60;5.00;;;2.20;99.90;;;;;;4975241;28;20118;-84
2020/12/30 07:34:36;;;;;;;7.45;5.00;;;2.20;99.90;;;;;;4975754;28;20027;-84
2020/12/30 07:37:05;;;;;;;7.47;4.97;;;2.20;99.90;;;;;;4977515;28;20027;-84
2020/12/30 07:39:40;;;;;;;6.32;4.97;;;2.20;99.90;;;;;;4975373;28;20113;-84
2020/12/30 07:42:07;;;;;;;6.38;5.18;;;2.40;99.90;;;;;;4978038;28;20030;-85
2020/12/30 07:44:34;;;;;;;9.35;5.45;;;2.30;99.90;;;;;;4979815;28;20425;-85
2020/12/30 07:47:04;;;;;;;9.77;6.32;;;2.10;99.90;;;;;;4978257;28;20030;-84
2020/12/30 07:49:30;;;;;;;6.57;5.13;;;2.10;99.90;;;;;;4976389;28;20030;-84
2020/12/30 07:51:59;;;;;;;8.20;4.80;;;2.10;99.90;;;;;;4977508;28;20022;-85
2020/12/30 07:54:25;;;;;;;6.78;5.05;;;2.00;99.90;;;;;;4975847;28;20050;-85
2020/12/30 07:56:59;;;;;;;6.72;4.53;;;2.10;99.90;;;;;;4976255;28;20121;-84
2020/12/30 07:59:25;;;;;;;7.47;4.85;;;2.20;99.90;;;;;;4977449;28;20023;-83
2020/12/30 08:02:01;;;;;;;9.27;4.80;;;2.40;99.90;;;;;;4976386;28;20062;-85
2020/12/30 08:04:29;;;;;;;8.93;5.10;;;2.60;99.90;;;;;;4977706;28;20033;-84
2020/12/30 08:06:55;;;;;;;5.75;4.75;;;2.80;99.90;;;;;;4977445;28;20027;-84
2020/12/30 08:09:26;;;;;;;5.38;4.50;;;3.10;99.90;;;;;;4975740;28;20541;-84
2020/12/30 08:11:53;;;;;;;7.85;4.40;;;3.50;99.90;;;;;;4975220;28;20065;-84
2020/12/30 08:14:21;;;;;;;7.10;4.10;;;3.50;99.90;;;;;;4974001;28;20019;-84
2020/12/30 08:16:57;;;;;;;6.30;4.25;;;3.40;99.90;;;;;;4974817;28;20078;-85
2020/12/30 08:19:34;;;;;;;7.25;4.60;;;3.00;99.90;;;;;;4973867;28;20027;-83
2020/12/30 08:22:14;;;;;;;6.28;4.72;;;3.00;99.90;;;;;;4975112;28;20475;-84
2020/12/30 08:24:57;;;;;;;6.38;3.95;;;3.00;99.90;;;;;;4974096;28;20033;-83
2020/12/30 08:27:25;;;;;;;5.95;4.28;;;2.70;99.90;;;;;;4973514;28;20042;-84
2020/12/30 08:29:51;;;;;;;7.68;4.18;;;2.70;99.90;;;;;;4974252;28;20065;-84
2020/12/30 08:32:26;;;;;;;9.77;4.80;;;2.80;99.90;;;;;;4973695;28;20398;-84
2020/12/30 08:35:15;;;;;;;6.15;4.30;;;3.00;99.90;;;;;;4975197;28;20035;-84
2020/12/30 08:37:47;;;;;;;6.88;4.20;;;3.10;99.90;;;;;;4977206;28;20031;-84
2020/12/30 08:40:18;;;;;;;6.38;3.67;;;3.00;99.90;;;;;;4976713;28;20026;-85
2020/12/30 08:42:53;;;;;;;7.00;4.00;;;3.10;99.90;;;;;;4976648;28;20019;-85
2020/12/30 08:45:26;;;;;;;5.85;4.15;;;3.10;99.90;;;;;;4976465;28;20391;-84
2020/12/30 08:47:54;;;;;;;6.88;3.90;;;3.20;99.90;;;;;;4976573;28;20474;-83
2020/12/30 08:50:23;;;;;;;8.93;4.30;;;3.00;99.90;;;;;;4977674;28;20034;-84
2020/12/30 08:52:50;;;;;;;5.20;4.07;;;2.90;99.90;;;;;;4976865;28;20070;-84
2020/12/30 08:55:16;;;;;;;6.00;4.05;;;2.90;99.90;;;;;;4976717;28;20549;-84
2020/12/30 08:57:46;;;;;;;8.88;4.85;;;2.90;99.90;;;;;;4977417;28;20026;-84
2020/12/30 09:00:23;;;;;;;8.38;3.58;;;2.80;99.90;;;;;;4978205;28;20027;-84
2020/12/30 09:02:50;;;;;;;4.60;3.53;;;2.90;99.90;;;;;;4977554;28;20050;-84
2020/12/30 09:05:28;;;;;;;8.05;3.97;;;2.90;99.90;;;;;;4976207;28;20074;-85
2020/12/30 09:07:54;;;;;;;5.65;3.97;;;3.00;99.90;;;;;;4976021;28;20051;-84
2020/12/30 09:10:20;;;;;;;6.55;4.70;;;2.90;99.90;;;;;;4975818;28;20030;-84
2020/12/30 09:12:47;;;;;;;5.70;4.32;;;3.10;99.90;;;;;;4975807;28;20031;-85
2020/12/30 09:15:15;;;;;;;6.97;4.20;;;3.30;99.90;;;;;;4975747;28;20110;-84
2020/12/30 09:17:41;;;;;;;8.93;4.30;;;3.40;99.90;;;;;;4976142;28;20027;-84
2020/12/30 09:20:15;;;;;;;8.35;3.90;;;3.30;99.90;;;;;;4975962;28;20034;-84
2020/12/30 09:22:42;;;;;;;12.18;4.65;;;3.10;99.90;;;;;;4975952;28;20046;-84
2020/12/30 09:25:23;;;;;;;9.18;4.15;;;3.10;99.90;;;;;;4976029;28;20058;-84
2020/12/30 09:27:49;;;;;;;6.28;3.38;;;3.10;99.90;;;;;;4977336;28;20031;-84
2020/12/30 09:30:17;;;;;;;6.63;3.67;;;3.20;99.90;;;;;;4978009;28;20055;-85
2020/12/30 09:32:44;;;;;;;6.82;4.50;;;3.20;99.90;;;;;;4975438;28;20482;-84
2020/12/30 09:35:12;;;;;;;5.32;3.40;;;3.30;99.90;;;;;;4975358;28;20376;-84
2020/12/30 09:37:39;;;;;;;4.80;3.15;;;3.40;99.90;;;;;;4975779;28;20470;-84
2020/12/30 09:40:13;;;;;;;6.40;3.60;;;3.40;99.90;;;;;;4975281;28;20028;-83
2020/12/30 09:42:39;;;;;;;;;;;3.40;99.90;;;;;;4975775;28;20023;-83
2020/12/30 09:45:07;;;;;;;6.35;2.90;;;3.30;99.90;;;;;;4974997;28;19905;-83
2020/12/30 09:47:34;;;;;;;6.85;3.05;;;3.40;99.90;;;;;;4975108;28;20450;-84
2020/12/30 09:50:01;;;;;;;4.10;2.38;;;3.40;99.90;;;;;;4975533;28;20478;-84
2020/12/30 09:52:32;;;;;;;6.65;2.80;;;3.50;99.90;;;;;;4976756;28;20513;-85
2020/12/30 09:54:58;;;;;;;7.75;2.45;;;3.50;99.90;;;;;;4975180;28;20056;-84
2020/12/30 09:57:23;;;;;;;5.45;2.35;;;3.50;99.90;;;;;;4976263;28;20030;-84
2020/12/30 09:59:50;;;;;;;5.80;2.63;;;3.50;99.90;;;;;;4975035;28;20082;-84
2020/12/30 10:02:15;;;;;;;5.85;2.95;;;3.50;99.90;;;;;;4975604;28;20023;-84
2020/12/30 10:04:41;;;;;;;4.93;2.65;;;3.50;99.90;;;;;;4974841;28;20509;-84
2020/12/30 10:07:07;;;;;;;4.97;2.53;;;3.50;99.90;;;;;;4976872;28;20022;-85
2020/12/30 10:09:33;;;;;;;4.93;2.63;;;3.40;99.90;;;;;;4974931;28;20046;-85
2020/12/30 10:11:59;;;;;;;7.28;2.78;;;3.40;99.90;;;;;;4976163;28;20042;-84
2020/12/30 10:14:24;;;;;;;7.70;2.70;;;3.50;99.90;;;;;;4976847;28;20509;-84
2020/12/30 10:16:50;;;;;;;5.57;3.10;;;3.50;99.90;;;;;;4977665;28;20019;-85
2020/12/30 10:19:16;;;;;;;5.07;3.17;;;3.60;99.90;;;;;;4976287;28;20475;-85
2020/12/30 10:21:42;;;;;;;7.18;3.20;;;3.60;99.90;;;;;;4975746;28;20030;-86
2020/12/30 10:24:08;;;;;;;5.18;2.45;;;3.60;99.90;;;;;;4976502;28;20406;-85
2020/12/30 10:26:34;;;;;;;6.72;3.45;;;3.70;99.90;;;;;;4977172;28;20470;-84
2020/12/30 10:29:00;;;;;;;9.55;2.65;;;3.60;99.90;;;;;;4975932;28;20039;-84
2020/12/30 10:31:26;;;;;;;6.93;3.78;;;3.70;99.90;;;;;;4974920;28;20135;-85
2020/12/30 10:33:52;;;;;;;6.25;3.25;;;3.70;99.90;;;;;;4976567;28;20497;-85
2020/12/30 10:36:19;;;;;;;8.15;3.45;;;3.60;99.90;;;;;;4974724;28;20031;-85
2020/12/30 10:38:45;;;;;;;7.00;2.58;;;3.60;99.90;;;;;;4975292;28;20054;-85
2020/12/30 10:41:17;;;;;;;6.43;2.97;;;3.60;99.90;;;;;;4975956;28;20019;-85
2020/12/30 10:43:44;;;;;;;4.65;2.60;;;3.70;99.90;;;;;;4976076;28;20479;-85
2020/12/30 10:46:14;;;;;;;3.95;2.60;;;3.80;99.90;;;;;;4976642;28;20530;-85
2020/12/30 10:48:48;;;;;;;7.07;3.58;;;3.80;99.90;;;;;;4976238;28;20030;-85
2020/12/30 10:51:15;;;;;;;5.35;3.17;;;3.80;99.90;;;;;;4977802;28;20030;-84
2020/12/30 10:53:41;;;;;;;5.63;3.00;;;3.80;99.90;;;;;;4977359;28;20034;-84
2020/12/30 10:56:11;;;;;;;5.72;3.10;;;3.90;99.90;;;;;;4977076;28;20037;-84
2020/12/30 10:58:37;;;;;;;5.35;2.78;;;3.90;99.90;;;;;;4976119;28;20482;-85
2020/12/30 11:01:11;;;;;;;6.75;2.90;;;3.70;99.90;;;;;;4978979;28;20025;-85
2020/12/30 11:03:37;;;;;;;12.73;4.20;;;3.60;99.90;;;;;;4979174;28;20026;-84
2020/12/30 11:06:04;;;;;;;5.93;3.70;;;3.70;99.90;;;;;;4977160;28;20042;-85
2020/12/30 11:08:30;;;;;;;5.70;3.25;;;3.70;99.90;;;;;;4975806;28;20399;-84
2020/12/30 11:10:57;;;;;;;8.85;3.70;;;3.70;99.90;;;;;;4976837;28;20173;-84
2020/12/30 11:13:24;;;;;;;6.13;3.50;;;3.70;99.90;;;;;;4974664;28;20034;-85
2020/12/30 11:15:50;;;;;;;5.30;3.00;;;3.70;99.90;;;;;;4975455;28;20040;-84
2020/12/30 11:18:16;;;;;;;6.32;3.05;;;3.70;99.90;;;;;;4975483;28;20478;-85
2020/12/30 11:20:42;;;;;;;8.50;3.03;;;3.80;99.90;;;;;;4974762;28;20029;-85
2020/12/30 11:23:08;;;;;;;7.53;2.97;;;3.90;99.90;;;;;;4974545;28;20029;-84
2020/12/30 11:25:33;;;;;;;14.93;6.38;;;3.80;99.90;;;;;;4974676;28;20058;-87
2020/12/30 11:28:01;;;;;;;12.38;7.43;;;3.90;99.90;;;;;;4975525;28;20023;-84
2020/12/30 11:30:28;;;;;;;9.40;4.40;;;3.90;99.90;;;;;;4974020;28;20058;-84
2020/12/30 11:32:54;;;;;;;11.48;3.85;;;3.80;99.90;;;;;;4976503;28;20030;-84
2020/12/30 11:35:19;;;;;;;6.50;3.05;;;3.80;99.90;;;;;;4975375;28;20382;-85
2020/12/30 11:37:45;;;;;;;6.53;3.58;;;3.80;99.90;;;;;;4974136;28;20027;-84
2020/12/30 11:40:11;;;;;;;5.10;3.08;;;3.70;99.90;;;;;;4973587;28;20030;-84
2020/12/30 11:42:36;;;;;;;6.65;3.45;;;3.80;99.90;;;;;;4973565;28;20501;-84
2020/12/30 11:45:04;;;;;;;5.75;2.83;;;3.70;99.90;;;;;;4973634;28;20075;-84
2020/12/30 11:47:29;;;;;;;5.05;3.10;;;3.80;99.90;;;;;;4973951;28;20030;-84
2020/12/30 11:49:55;;;;;;;4.88;2.90;;;3.70;99.90;;;;;;4973533;28;20387;-84
2020/12/30 11:52:21;;;;;;;5.97;2.90;;;3.80;99.90;;;;;;4974640;28;20070;-84
2020/12/30 11:54:47;;;;;;;6.97;2.90;;;3.90;99.90;;;;;;4973664;28;20030;-84
2020/12/30 11:57:12;;;;;;;5.13;2.58;;;4.00;99.90;;;;;;4974867;28;20027;-83
2020/12/30 11:59:38;;;;;;;9.63;3.20;;;4.10;99.90;;;;;;4973984;28;20023;-84
2020/12/30 12:02:04;;;;;;;4.82;2.63;;;4.20;99.90;;;;;;4973224;28;20031;-84
2020/12/30 12:04:31;;;;;;;4.10;2.28;;;4.20;99.90;;;;;;4973315;28;20023;-84
2020/12/30 12:07:01;;;;;;;5.30;2.45;;;4.10;99.90;;;;;;4973712;28;20118;-84
2020/12/30 12:09:27;;;;;;;2.78;2.08;;;4.10;99.90;;;;;;4976064;28;20058;-84
2020/12/30 12:11:54;;;;;;;4.50;2.15;;;4.10;99.90;;;;;;4976905;28;20027;-84
2020/12/30 12:14:20;;;;;;;4.50;1.90;;;4.10;99.90;;;;;;4976950;28;20031;-84
2020/12/30 12:16:56;;;;;;;4.30;2.40;;;4.20;99.90;;;;;;4976762;28;20449;-84
2020/12/30 12:19:23;;;;;;;4.65;2.08;;;4.20;99.90;;;;;;4978134;28;20054;-84
2020/12/30 12:21:49;;;;;;;3.60;2.10;;;4.30;99.90;;;;;;4976851;28;20022;-84
2020/12/30 12:24:15;;;;;;;3.17;1.95;;;4.50;99.90;;;;;;4976738;28;20414;-84
2020/12/30 12:26:41;;;;;;;4.85;2.30;;;4.60;99.90;;;;;;4976662;28;20032;-84
2020/12/30 12:29:22;;;;;;;6.13;2.13;;;4.50;99.90;;;;;;4976815;28;20395;-85
2020/12/30 12:32:04;;;;;;;3.00;1.80;;;4.50;99.90;;;;;;4977317;28;20027;-84
2020/12/30 12:34:30;;;;;;;3.13;1.85;;;4.50;99.90;;;;;;4980638;28;20022;-84
2020/12/30 12:36:56;;;;;;;4.88;1.55;;;5.10;99.90;;;;;;4979580;28;20435;-85
2020/12/30 12:39:22;;;;;;;3.42;1.83;;;5.90;99.90;;;;;;4977221;28;20104;-83
2020/12/30 12:41:55;;;;;;;3.25;2.00;;;6.30;99.90;;;;;;4976371;28;20359;-83
2020/12/30 12:44:21;;;;;;;2.75;1.92;;;6.30;99.90;;;;;;4977405;28;20057;-83
2020/12/30 12:46:47;;;;;;;3.53;2.00;;;5.70;99.90;;;;;;4976497;28;20502;-84
2020/12/30 12:49:14;;;;;;;7.15;2.22;;;5.40;99.90;;;;;;4978103;28;20049;-85
2020/12/30 12:51:44;;;;;;;3.38;1.70;;;5.20;99.90;;;;;;4980019;28;20049;-83
2020/12/30 12:54:10;;;;;;;5.07;2.15;;;5.00;99.90;;;;;;4976739;28;20431;-84
2020/12/30 12:56:35;;;;;;;3.95;2.08;;;4.80;99.90;;;;;;4976095;28;20110;-83
2020/12/30 12:59:01;;;;;;;3.33;1.90;;;4.70;99.90;;;;;;4976866;28;20394;-84
2020/12/30 13:01:27;;;;;;;3.10;2.30;;;4.60;99.90;;;;;;4976371;28;20405;-84
2020/12/30 13:03:54;;;;;;;6.85;4.00;;;4.60;99.90;;;;;;4976016;28;20022;-83